createdAt,value
2018-06-09T00:00:10.538Z,18.10
2018-06-09T00:02:38.669Z,18.10
2018-06-09T00:05:06.723Z,18.10
2018-06-09T00:07:34.774Z,18.10
2018-06-09T00:10:02.855Z,18.10
2018-06-09T00:12:30.927Z,18.10
2018-06-09T00:14:58.986Z,18.10
2018-06-09T00:17:27.046Z,18.00
2018-06-09T00:19:55.114Z,18.00
2018-06-09T00:22:23.184Z,18.00
2018-06-09T00:24:51.247Z,18.00
2018-06-09T00:27:19.314Z,17.90
2018-06-09T00:29:47.394Z,17.90
2018-06-09T00:32:15.510Z,17.80
2018-06-09T00:34:43.555Z,17.90
2018-06-09T00:39:39.530Z,17.80
2018-06-09T00:42:07.580Z,17.70
2018-06-09T00:44:35.650Z,17.70
2018-06-09T00:47:03.711Z,17.70
2018-06-09T00:49:31.789Z,17.60
2018-06-09T00:51:59.858Z,17.60
2018-06-09T00:54:27.942Z,17.60
2018-06-09T00:56:55.999Z,17.60
2018-06-09T00:59:24.056Z,17.60
2018-06-09T01:01:52.126Z,17.60
2018-06-09T01:04:20.187Z,17.60
2018-06-09T01:06:48.239Z,17.60
2018-06-09T01:09:16.307Z,17.60
2018-06-09T01:11:44.377Z,17.50
2018-06-09T01:14:12.447Z,17.50
2018-06-09T01:16:40.494Z,17.50
2018-06-09T01:19:08.565Z,17.50
2018-06-09T01:21:36.618Z,17.50
2018-06-09T01:24:04.813Z,17.50
2018-06-09T01:26:32.987Z,17.50
2018-06-09T01:29:01.034Z,17.40
2018-06-09T01:31:29.130Z,17.40
2018-06-09T01:33:57.184Z,17.40
2018-06-09T01:36:25.250Z,17.40
2018-06-09T01:38:53.322Z,17.30
2018-06-09T01:41:21.383Z,17.30
2018-06-09T01:43:49.473Z,17.30
2018-06-09T01:46:17.534Z,17.30
2018-06-09T01:48:45.631Z,17.30
2018-06-09T01:51:13.803Z,17.30
2018-06-09T01:53:41.890Z,17.20
2018-06-09T01:56:09.950Z,17.30
2018-06-09T01:58:38.020Z,17.20
2018-06-09T02:01:06.093Z,17.20
2018-06-09T02:03:34.182Z,17.20
2018-06-09T02:06:02.250Z,17.20
2018-06-09T02:08:30.322Z,17.20
2018-06-09T02:10:58.391Z,17.20
2018-06-09T02:13:26.462Z,17.20
2018-06-09T02:15:54.538Z,17.10
2018-06-09T02:18:22.592Z,17.10
2018-06-09T02:20:50.767Z,17.10
2018-06-09T02:23:18.818Z,17.10
2018-06-09T02:25:46.891Z,17.10
2018-06-09T02:28:14.978Z,17.10
2018-06-09T02:30:43.030Z,17.00
2018-06-09T02:33:11.130Z,17.10
2018-06-09T02:35:39.171Z,17.00
2018-06-09T02:38:07.236Z,17.00
2018-06-09T02:40:35.349Z,17.00
2018-06-09T02:43:03.498Z,17.10
2018-06-09T02:45:32.391Z,17.10
2018-06-09T02:48:00.590Z,17.10
2018-06-09T02:50:28.663Z,17.10
2018-06-09T02:52:56.830Z,17.20
2018-06-09T02:55:24.882Z,17.20
2018-06-09T02:57:52.992Z,17.20
2018-06-09T03:00:21.110Z,17.20
2018-06-09T03:02:49.294Z,17.20
2018-06-09T03:05:17.387Z,17.20
2018-06-09T03:07:45.451Z,17.20
2018-06-09T03:10:13.518Z,17.30
2018-06-09T03:12:41.574Z,17.30
2018-06-09T03:15:09.655Z,17.20
2018-06-09T03:17:37.726Z,17.20
2018-06-09T03:20:05.908Z,17.20
2018-06-09T03:22:33.944Z,17.30
2018-06-09T03:25:02.141Z,17.30
2018-06-09T03:27:30.209Z,17.30
2018-06-09T03:29:58.291Z,17.30
2018-06-09T03:32:26.434Z,17.30
2018-06-09T03:37:22.403Z,17.30
2018-06-09T03:39:50.510Z,17.30
2018-06-09T03:42:18.579Z,17.30
2018-06-09T03:44:46.662Z,17.30
2018-06-09T03:47:14.786Z,17.30
2018-06-09T03:49:42.838Z,17.30
2018-06-09T03:52:10.899Z,17.30
2018-06-09T03:54:38.971Z,17.30
2018-06-09T03:59:34.992Z,17.30
2018-06-09T04:02:03.094Z,17.30
2018-06-09T04:04:31.188Z,17.30
2018-06-09T04:06:59.258Z,17.40
2018-06-09T04:09:27.447Z,17.40
2018-06-09T04:11:55.518Z,17.40
2018-06-09T04:14:23.590Z,17.40
2018-06-09T04:16:51.698Z,17.40
2018-06-09T04:19:19.793Z,17.40
2018-06-09T04:24:15.790Z,17.40
2018-06-09T04:26:43.853Z,17.40
2018-06-09T04:29:11.934Z,17.50
2018-06-09T04:31:40.023Z,17.50
2018-06-09T04:34:08.114Z,17.50
2018-06-09T04:36:36.188Z,17.50
2018-06-09T04:39:06.839Z,17.50
2018-06-09T04:41:35.096Z,17.50
2018-06-09T04:46:31.119Z,17.60
2018-06-09T04:48:59.182Z,17.60
2018-06-09T04:51:27.274Z,17.60
2018-06-09T04:53:55.383Z,17.70
2018-06-09T04:56:23.441Z,17.70
2018-06-09T04:58:51.532Z,17.70
2018-06-09T05:01:19.608Z,17.70
2018-06-09T05:03:47.683Z,17.70
2018-06-09T05:06:15.754Z,17.70
2018-06-09T05:08:43.921Z,17.70
2018-06-09T05:11:11.995Z,17.70
2018-06-09T05:13:40.126Z,17.80
2018-06-09T05:18:36.166Z,17.80
2018-06-09T05:21:04.281Z,17.80
2018-06-09T05:23:32.354Z,17.80
2018-06-09T05:26:00.474Z,17.80
2018-06-09T05:28:28.529Z,17.80
2018-06-09T05:30:56.626Z,17.80
2018-06-09T05:33:24.702Z,17.80
2018-06-09T05:35:52.798Z,17.80
2018-06-09T05:38:20.883Z,17.80
2018-06-09T05:40:48.958Z,17.80
2018-06-09T05:43:17.011Z,17.80
2018-06-09T05:45:45.303Z,17.80
2018-06-09T05:48:13.387Z,17.80
2018-06-09T05:50:41.478Z,17.90
2018-06-09T05:53:09.519Z,17.90
2018-06-09T05:55:37.643Z,17.90
2018-06-09T05:58:05.675Z,18.00
2018-06-09T06:00:33.767Z,18.00
2018-06-09T06:03:01.918Z,18.10
2018-06-09T06:05:29.930Z,18.10
2018-06-09T06:07:58.003Z,18.20
2018-06-09T06:10:26.094Z,18.20
2018-06-09T06:12:54.234Z,18.30
2018-06-09T06:15:22.302Z,18.30
2018-06-09T06:17:50.366Z,18.40
2018-06-09T06:20:18.450Z,18.50
2018-06-09T06:22:46.522Z,18.50
2018-06-09T06:25:14.610Z,18.60
2018-06-09T06:27:42.680Z,18.80
2018-06-09T06:30:10.786Z,18.90
2018-06-09T06:32:38.890Z,19.00
2018-06-09T06:35:06.970Z,19.00
2018-06-09T06:40:02.978Z,19.30
2018-06-09T06:42:31.046Z,19.30
2018-06-09T06:44:59.228Z,19.40
2018-06-09T06:47:27.248Z,19.40
2018-06-09T06:49:55.311Z,19.50
2018-06-09T06:52:23.372Z,19.60
2018-06-09T06:54:51.445Z,19.80
2018-06-09T06:57:19.527Z,19.80
2018-06-09T06:59:47.591Z,19.90
2018-06-09T07:02:15.702Z,20.10
2018-06-09T07:04:43.756Z,20.30
2018-06-09T07:07:11.835Z,20.30
2018-06-09T07:09:39.930Z,20.40
2018-06-09T07:12:08.075Z,20.50
2018-06-09T07:14:36.145Z,20.50
2018-06-09T07:17:04.190Z,20.60
2018-06-09T07:19:32.290Z,20.80
2018-06-09T07:22:00.464Z,20.90
2018-06-09T07:24:28.512Z,21.10
2018-06-09T07:26:56.579Z,21.20
2018-06-09T07:29:24.678Z,21.30
2018-06-09T07:31:52.762Z,21.40
2018-06-09T07:34:20.879Z,21.40
2018-06-09T07:36:48.942Z,21.40
2018-06-09T07:39:17.047Z,21.30
2018-06-09T07:41:45.123Z,21.30
2018-06-09T07:44:13.215Z,21.20
2018-06-09T07:46:41.251Z,21.20
2018-06-09T07:49:09.349Z,21.20
2018-06-09T07:51:37.411Z,21.20
2018-06-09T07:54:05.651Z,21.20
2018-06-09T07:56:33.663Z,21.30
2018-06-09T07:59:01.733Z,21.30
2018-06-09T08:01:29.797Z,21.40
2018-06-09T08:03:57.850Z,21.50
2018-06-09T08:06:25.943Z,21.60
2018-06-09T08:08:54.011Z,21.70
2018-06-09T08:11:22.074Z,21.80
2018-06-09T08:13:50.179Z,21.90
2018-06-09T08:16:18.225Z,21.90
2018-06-09T08:18:46.283Z,22.00
2018-06-09T08:21:14.370Z,22.20
2018-06-09T08:23:42.442Z,22.30
2018-06-09T08:26:10.636Z,22.30
2018-06-09T08:28:38.722Z,22.40
2018-06-09T08:31:06.885Z,22.40
2018-06-09T08:33:34.982Z,22.40
2018-06-09T08:36:03.072Z,22.30
2018-06-09T08:38:31.114Z,22.30
2018-06-09T08:40:59.186Z,22.20
2018-06-09T08:43:27.243Z,22.20
2018-06-09T08:45:55.327Z,22.10
2018-06-09T08:48:23.489Z,22.20
2018-06-09T08:50:51.581Z,22.30
2018-06-09T08:53:19.700Z,22.40
2018-06-09T08:55:47.835Z,22.70
2018-06-09T08:58:15.907Z,23.00
2018-06-09T09:00:44.019Z,23.20
2018-06-09T09:05:40.006Z,23.30
2018-06-09T09:08:08.337Z,23.30
2018-06-09T09:10:36.442Z,23.40
2018-06-09T09:13:04.567Z,23.50
2018-06-09T09:18:00.615Z,23.60
2018-06-09T09:20:28.670Z,23.60
2018-06-09T09:22:56.768Z,23.80
2018-06-09T09:30:20.785Z,24.00
2018-06-09T09:32:48.984Z,24.10
2018-06-09T09:35:17.074Z,24.00
2018-06-09T09:37:45.210Z,24.10
2018-06-09T09:40:13.274Z,24.10
2018-06-09T09:45:09.336Z,24.30
2018-06-09T09:47:37.394Z,24.50
2018-06-09T09:50:05.459Z,24.70
2018-06-09T09:52:33.538Z,24.70
2018-06-09T09:55:01.638Z,24.70
2018-06-09T09:57:29.690Z,24.60
2018-06-09T09:59:57.860Z,24.70
2018-06-09T10:02:25.950Z,24.70
2018-06-09T10:04:54.035Z,24.80
2018-06-09T10:07:22.102Z,24.90
2018-06-09T10:09:50.175Z,25.20
2018-06-09T10:12:18.270Z,25.40
2018-06-09T10:14:46.339Z,25.50
2018-06-09T10:17:14.427Z,25.60
2018-06-09T10:19:42.507Z,25.70
2018-06-09T10:22:10.620Z,25.80
2018-06-09T10:24:38.687Z,25.80
2018-06-09T10:27:06.988Z,25.70
2018-06-09T10:29:35.040Z,25.70
2018-06-09T10:32:03.217Z,25.80
2018-06-09T10:34:31.510Z,25.90
2018-06-09T10:36:59.633Z,25.90
2018-06-09T10:39:27.698Z,25.90
2018-06-09T10:44:23.623Z,26.10
2018-06-09T10:46:51.690Z,26.20
2018-06-09T10:49:19.749Z,26.10
2018-06-09T10:51:47.819Z,26.10
2018-06-09T10:54:15.878Z,26.10
2018-06-09T10:56:44.036Z,26.20
2018-06-09T10:59:12.107Z,26.20
2018-06-09T11:01:40.177Z,26.20
2018-06-09T11:04:08.255Z,26.20
2018-06-09T11:06:36.312Z,26.30
2018-06-09T11:09:06.618Z,26.30
2018-06-09T11:11:34.662Z,26.30
2018-06-09T11:14:02.737Z,26.30
2018-06-09T11:16:30.794Z,26.40
2018-06-09T11:18:58.859Z,26.50
2018-06-09T11:21:27.005Z,26.60
2018-06-09T11:23:55.072Z,26.60
2018-06-09T11:26:23.258Z,26.70
2018-06-09T11:28:51.330Z,26.60
2018-06-09T11:31:19.383Z,26.60
2018-06-09T11:33:47.452Z,26.60
2018-06-09T11:36:15.509Z,26.80
2018-06-09T11:41:11.556Z,26.60
2018-06-09T11:43:39.655Z,26.80
2018-06-09T11:46:07.721Z,26.80
2018-06-09T11:48:35.779Z,27.00
2018-06-09T11:51:03.838Z,27.00
2018-06-09T11:53:31.922Z,27.00
2018-06-09T11:55:59.980Z,27.00
2018-06-09T11:58:28.042Z,26.80
2018-06-09T12:00:56.171Z,26.90
2018-06-09T12:03:24.246Z,27.00
2018-06-09T12:05:52.398Z,27.10
2018-06-09T12:08:20.469Z,27.20
2018-06-09T12:10:48.543Z,27.30
2018-06-09T12:13:16.640Z,27.40
2018-06-09T12:15:44.708Z,27.40
2018-06-09T12:18:12.784Z,27.40
2018-06-09T12:20:40.852Z,27.60
2018-06-09T12:23:09.004Z,27.60
2018-06-09T12:25:37.068Z,27.50
2018-06-09T12:28:05.146Z,27.40
2018-06-09T12:30:33.324Z,27.30
2018-06-09T12:33:01.434Z,27.30
2018-06-09T12:35:29.459Z,27.40
2018-06-09T12:37:57.530Z,27.60
2018-06-09T12:40:25.711Z,27.70
2018-06-09T12:42:53.779Z,27.80
2018-06-09T12:45:21.821Z,27.70
2018-06-09T12:50:17.751Z,27.50
2018-06-09T12:52:45.826Z,27.60
2018-06-09T12:55:13.919Z,27.80
2018-06-09T12:57:42.003Z,28.00
2018-06-09T13:00:10.090Z,28.00
2018-06-09T13:02:38.179Z,27.90
2018-06-09T13:05:06.254Z,27.90
2018-06-09T13:07:34.310Z,27.90
2018-06-09T13:10:02.449Z,27.90
2018-06-09T13:12:30.507Z,28.00
2018-06-09T13:14:58.575Z,28.00
2018-06-09T13:17:26.691Z,28.00
2018-06-09T13:19:54.790Z,28.20
2018-06-09T13:22:22.875Z,28.40
2018-06-09T13:24:51.002Z,28.50
2018-06-09T13:27:19.032Z,28.40
2018-06-09T13:29:47.106Z,28.60
2018-06-09T13:32:15.179Z,28.90
2018-06-09T13:37:11.151Z,29.20
2018-06-09T13:39:39.212Z,29.20
2018-06-09T13:42:07.274Z,29.20
2018-06-09T13:44:35.370Z,29.20
2018-06-09T13:47:03.426Z,29.20
2018-06-09T13:49:31.543Z,29.10
2018-06-09T13:51:59.573Z,29.00
2018-06-09T13:54:27.705Z,29.00
2018-06-09T13:56:55.718Z,29.10
2018-06-09T13:59:23.791Z,29.40
2018-06-09T14:01:51.893Z,29.60
2018-06-09T14:04:19.967Z,29.70
2018-06-09T14:06:48.040Z,29.60
2018-06-09T14:09:16.194Z,29.20
2018-06-09T14:11:44.271Z,29.00
2018-06-09T14:14:12.409Z,29.10
2018-06-09T14:16:40.485Z,29.30
2018-06-09T14:21:36.471Z,29.50
2018-06-09T14:24:04.559Z,29.60
2018-06-09T14:26:32.692Z,29.70
2018-06-09T14:29:00.783Z,29.40
2018-06-09T14:31:28.851Z,29.10
2018-06-09T14:33:56.940Z,29.00
2018-06-09T14:36:25.116Z,28.80
2018-06-09T14:38:53.239Z,28.90
2018-06-09T14:41:21.260Z,29.20
2018-06-09T14:43:49.337Z,29.40
2018-06-09T14:46:17.405Z,29.60
2018-06-09T14:48:45.479Z,29.90
2018-06-09T14:51:13.617Z,30.10
2018-06-09T14:53:41.696Z,30.10
2018-06-09T14:56:09.743Z,30.20
2018-06-09T14:58:37.806Z,30.30
2018-06-09T15:01:05.905Z,30.40
2018-06-09T15:05:03.214Z,30.40
2018-06-09T15:07:31.270Z,30.40
2018-06-09T15:09:59.377Z,30.40
2018-06-09T15:12:27.470Z,30.40
2018-06-09T15:14:55.554Z,30.30
2018-06-09T15:17:23.627Z,30.50
2018-06-09T15:19:51.729Z,30.70
2018-06-09T15:22:19.855Z,30.90
2018-06-09T15:24:48.026Z,30.80
2018-06-09T15:27:16.088Z,31.10
2018-06-09T15:29:44.227Z,31.40
2018-06-09T15:32:12.303Z,31.50
2018-06-09T15:34:40.388Z,31.50
2018-06-09T15:37:08.468Z,31.30
2018-06-09T15:39:36.603Z,31.20
2018-06-09T15:42:04.833Z,31.20
2018-06-09T15:44:32.939Z,31.50
2018-06-09T15:47:01.086Z,31.50
2018-06-09T15:49:29.194Z,31.60
2018-06-09T15:51:57.273Z,31.70
2018-06-09T15:54:25.410Z,31.50
2018-06-09T15:56:53.460Z,31.30
2018-06-09T15:59:22.591Z,31.30
2018-06-09T16:01:57.077Z,31.50
2018-06-09T16:04:25.393Z,31.80
2018-06-09T16:06:53.567Z,31.90
2018-06-09T16:09:21.638Z,31.90
2018-06-09T16:11:49.766Z,32.10
2018-06-09T16:14:17.826Z,32.00
2018-06-09T16:16:45.896Z,31.80
2018-06-09T16:19:14.016Z,31.70
2018-06-09T16:21:42.106Z,31.60
2018-06-09T16:24:10.199Z,31.50
2018-06-09T16:26:38.271Z,31.40
2018-06-09T16:29:06.423Z,31.80
2018-06-09T16:31:34.493Z,32.10
2018-06-09T16:34:02.624Z,31.80
2018-06-09T16:38:58.663Z,30.60
2018-06-09T16:41:26.767Z,30.10
2018-06-09T16:43:54.934Z,29.90
2018-06-09T16:46:23.163Z,29.90
2018-06-09T16:48:51.232Z,29.90
2018-06-09T16:51:19.331Z,30.10
2018-06-09T16:53:47.396Z,30.40
2018-06-09T16:56:15.487Z,30.70
2018-06-09T16:58:43.602Z,30.90
2018-06-09T17:01:11.719Z,30.80
2018-06-09T17:03:39.802Z,30.30
2018-06-09T17:06:07.881Z,29.60
2018-06-09T17:08:35.969Z,29.00
2018-06-09T17:11:04.094Z,28.50
2018-06-09T17:13:32.156Z,28.30
2018-06-09T17:16:00.222Z,27.90
2018-06-09T17:18:28.387Z,27.60
2018-06-09T17:20:56.586Z,27.40
2018-06-09T17:23:24.660Z,27.30
2018-06-09T17:25:52.733Z,27.10
2018-06-09T17:28:20.803Z,27.00
2018-06-09T17:30:48.858Z,27.00
2018-06-09T17:33:16.943Z,26.90
2018-06-09T17:35:45.023Z,26.90
2018-06-09T17:38:13.107Z,26.80
2018-06-09T17:40:41.166Z,26.70
2018-06-09T17:43:09.361Z,26.80
2018-06-09T17:45:37.459Z,26.60
2018-06-09T17:48:05.546Z,26.50
2018-06-09T17:50:33.594Z,26.30
2018-06-09T17:53:01.651Z,26.40
2018-06-09T17:55:29.714Z,26.20
2018-06-09T17:57:57.866Z,26.10
2018-06-09T18:00:26.004Z,25.90
2018-06-09T18:02:54.088Z,25.80
2018-06-09T18:05:22.180Z,25.70
2018-06-09T18:07:50.251Z,25.60
2018-06-09T18:10:18.416Z,25.40
2018-06-09T18:12:46.502Z,25.30
2018-06-09T18:15:14.666Z,25.30
2018-06-09T18:17:42.758Z,25.20
2018-06-09T18:20:10.922Z,25.10
2018-06-09T18:22:38.997Z,25.10
2018-06-09T18:25:07.064Z,25.00
2018-06-09T18:27:35.218Z,25.00
2018-06-09T18:30:03.327Z,25.00
2018-06-09T18:32:31.581Z,24.90
2018-06-09T18:34:59.641Z,24.70
2018-06-09T18:37:27.758Z,24.50
2018-06-09T18:39:55.845Z,24.50
2018-06-09T18:42:23.926Z,24.40
2018-06-09T18:44:52.031Z,24.30
2018-06-09T18:47:20.452Z,24.30
2018-06-09T18:49:48.658Z,24.30
2018-06-09T18:52:17.225Z,24.10
2018-06-09T18:54:45.371Z,24.10
2018-06-09T18:57:13.557Z,24.00
2018-06-09T18:59:41.660Z,23.80
2018-06-09T19:02:09.731Z,23.70
2018-06-09T19:04:37.863Z,23.60
2018-06-09T19:07:05.970Z,23.50
2018-06-09T19:09:34.337Z,23.30
2018-06-09T19:12:02.418Z,23.30
2018-06-09T19:14:30.582Z,23.10
2018-06-09T19:16:58.738Z,23.10
2018-06-09T19:19:26.879Z,23.00
2018-06-09T19:21:55.051Z,23.00
2018-06-09T19:24:23.107Z,22.90
2018-06-09T19:26:51.490Z,22.80
2018-06-09T19:29:19.599Z,22.70
2018-06-09T19:31:47.695Z,22.70
2018-06-09T19:34:15.810Z,22.50
2018-06-09T19:36:44.641Z,22.40
2018-06-09T19:39:12.742Z,22.30
2018-06-09T19:41:40.871Z,22.30
2018-06-09T19:44:09.670Z,22.20
2018-06-09T19:46:37.730Z,22.20
2018-06-09T19:49:05.803Z,22.20
2018-06-09T19:51:33.883Z,22.10
2018-06-09T19:54:01.987Z,22.00
2018-06-09T19:56:30.061Z,22.00
2018-06-09T19:58:58.216Z,21.90
2018-06-09T20:01:26.563Z,21.90
2018-06-09T20:03:54.746Z,21.90
2018-06-09T20:06:22.826Z,21.90
2018-06-09T20:08:50.943Z,21.80
2018-06-09T20:11:18.994Z,21.70
2018-06-09T20:13:47.080Z,21.70
2018-06-09T20:16:15.194Z,21.60
2018-06-09T20:18:43.321Z,21.50
2018-06-09T20:21:11.511Z,21.50
2018-06-09T20:23:39.590Z,21.50
2018-06-09T20:26:07.958Z,21.50
2018-06-09T20:28:36.024Z,21.40
2018-06-09T20:31:06.735Z,21.40
2018-06-09T20:33:34.820Z,21.30
2018-06-09T20:36:02.895Z,21.30
2018-06-09T20:38:31.090Z,21.20
2018-06-09T20:40:59.174Z,21.10
2018-06-09T20:43:27.608Z,21.10
2018-06-09T20:45:55.819Z,21.10
2018-06-09T20:48:23.871Z,21.10
2018-06-09T20:50:52.025Z,21.00
2018-06-09T20:53:20.084Z,21.00
2018-06-09T20:55:48.178Z,21.00
2018-06-09T20:58:16.239Z,20.90
2018-06-09T21:00:44.312Z,20.80
2018-06-09T21:03:12.366Z,20.80
2018-06-09T21:05:40.484Z,20.70
2018-06-09T21:08:08.534Z,20.70
2018-06-09T21:10:36.608Z,20.60
2018-06-09T21:13:04.784Z,20.60
2018-06-09T21:15:32.834Z,20.60
2018-06-09T21:18:00.946Z,20.60
2018-06-09T21:20:29.079Z,20.50
2018-06-09T21:22:57.225Z,20.50
2018-06-09T21:25:25.292Z,20.40
2018-06-09T21:27:58.874Z,20.40
2018-06-09T21:30:48.354Z,20.40
2018-06-09T21:33:29.873Z,20.40
2018-06-09T21:36:03.755Z,20.30
2018-06-09T21:38:33.241Z,20.30
2018-06-09T21:41:01.956Z,20.20
2018-06-09T21:43:34.527Z,20.20
2018-06-09T21:46:05.558Z,20.20
2018-06-09T21:48:33.611Z,20.10
2018-06-09T21:51:02.579Z,20.00
2018-06-09T21:53:30.642Z,20.00
2018-06-09T21:55:58.718Z,20.00
2018-06-09T21:58:27.272Z,19.90
2018-06-09T22:00:55.351Z,19.90
2018-06-09T22:05:51.371Z,19.80
2018-06-09T22:08:19.460Z,19.80
2018-06-09T22:10:47.570Z,19.70
2018-06-09T22:13:15.616Z,19.70
2018-06-09T22:15:43.683Z,19.60
2018-06-09T22:18:11.774Z,19.60
2018-06-09T22:20:39.835Z,19.60
2018-06-09T22:23:07.900Z,19.60
2018-06-09T22:25:41.552Z,19.60
2018-06-09T22:28:09.682Z,19.60
2018-06-09T22:30:37.879Z,19.60
2018-06-09T22:33:06.022Z,19.60
2018-06-09T22:38:02.019Z,19.60
2018-06-09T22:40:30.088Z,19.60
2018-06-09T22:42:58.172Z,19.50
2018-06-09T22:45:26.258Z,19.50
2018-06-09T22:47:54.328Z,19.60
2018-06-09T22:50:22.394Z,19.50
2018-06-09T22:52:50.528Z,19.50
2018-06-09T22:55:18.583Z,19.50
2018-06-09T22:57:46.630Z,19.40
2018-06-09T23:00:24.877Z,19.30
2018-06-09T23:02:52.933Z,19.20
2018-06-09T23:05:20.978Z,19.20
2018-06-09T23:07:49.059Z,19.10
2018-06-09T23:10:17.113Z,19.10
2018-06-09T23:12:45.203Z,19.10
2018-06-09T23:15:13.282Z,19.00
2018-06-09T23:17:41.371Z,18.90
2018-06-09T23:20:09.435Z,18.90
2018-06-09T23:22:37.519Z,18.90
2018-06-09T23:25:05.620Z,18.90
2018-06-09T23:27:33.835Z,18.90
2018-06-09T23:32:29.826Z,18.80
2018-06-09T23:34:57.886Z,18.80
2018-06-09T23:37:25.976Z,18.80
2018-06-09T23:39:54.026Z,18.70
2018-06-09T23:42:22.083Z,18.70
2018-06-09T23:44:50.174Z,18.70
2018-06-09T23:47:18.242Z,18.70
2018-06-09T23:49:46.315Z,18.70
2018-06-09T23:52:14.376Z,18.70
2018-06-09T23:54:42.437Z,18.60
2018-06-09T23:57:10.494Z,18.60
2018-06-09T23:59:38.562Z,18.60
